sensor_id;sensor_type;location;lat;lon;timestamp;temperature;humidity
1686;DHT22;840;47.980;7.830;2023-07-09T00:00:37;24.40;96.60
1686;DHT22;840;47.980;7.830;2023-07-09T00:03:05;24.40;96.80
1686;DHT22;840;47.980;7.830;2023-07-09T00:05:32;24.40;96.90
1686;DHT22;840;47.980;7.830;2023-07-09T00:07:59;24.30;96.90
1686;DHT22;840;47.980;7.830;2023-07-09T00:10:28;24.30;96.80
1686;DHT22;840;47.980;7.830;2023-07-09T00:12:55;24.30;97.00
1686;DHT22;840;47.980;7.830;2023-07-09T00:15:21;24.30;97.50
1686;DHT22;840;47.980;7.830;2023-07-09T00:17:50;24.20;97.10
1686;DHT22;840;47.980;7.830;2023-07-09T00:20:18;24.20;97.60
1686;DHT22;840;47.980;7.830;2023-07-09T00:22:45;24.20;97.60
1686;DHT22;840;47.980;7.830;2023-07-09T00:25:13;24.20;97.90
1686;DHT22;840;47.980;7.830;2023-07-09T00:27:43;24.10;97.80
1686;DHT22;840;47.980;7.830;2023-07-09T00:30:16;24.20;97.60
1686;DHT22;840;47.980;7.830;2023-07-09T00:32:43;24.20;98.00
1686;DHT22;840;47.980;7.830;2023-07-09T00:35:10;24.10;97.90
1686;DHT22;840;47.980;7.830;2023-07-09T00:37:37;24.20;98.10
1686;DHT22;840;47.980;7.830;2023-07-09T00:40:08;24.20;98.20
1686;DHT22;840;47.980;7.830;2023-07-09T00:42:36;24.20;98.60
1686;DHT22;840;47.980;7.830;2023-07-09T00:45:17;24.20;98.20
1686;DHT22;840;47.980;7.830;2023-07-09T00:47:47;24.20;98.60
1686;DHT22;840;47.980;7.830;2023-07-09T00:50:30;24.10;99.00
1686;DHT22;840;47.980;7.830;2023-07-09T00:53:02;24.10;98.80
1686;DHT22;840;47.980;7.830;2023-07-09T00:55:34;24.10;98.80
1686;DHT22;840;47.980;7.830;2023-07-09T00:58:06;24.10;99.60
1686;DHT22;840;47.980;7.830;2023-07-09T01:00:39;24.10;99.90
1686;DHT22;840;47.980;7.830;2023-07-09T01:03:15;24.10;99.90
1686;DHT22;840;47.980;7.830;2023-07-09T03:05:31;22.00;99.90
1686;DHT22;840;47.980;7.830;2023-07-09T03:07:59;22.80;99.90
1686;DHT22;840;47.980;7.830;2023-07-09T03:10:28;22.80;99.90
1686;DHT22;840;47.980;7.830;2023-07-09T03:12:55;22.80;99.90
1686;DHT22;840;47.980;7.830;2023-07-09T03:15:21;22.80;99.90
1686;DHT22;840;47.980;7.830;2023-07-09T03:17:48;22.70;99.90
1686;DHT22;840;47.980;7.830;2023-07-09T03:20:16;22.70;99.90
1686;DHT22;840;47.980;7.830;2023-07-09T03:22:44;22.70;99.90
1686;DHT22;840;47.980;7.830;2023-07-09T03:25:10;22.70;99.90
1686;DHT22;840;47.980;7.830;2023-07-09T03:27:37;22.70;99.90
1686;DHT22;840;47.980;7.830;2023-07-09T03:30:05;22.80;99.90
1686;DHT22;840;47.980;7.830;2023-07-09T03:32:32;22.80;99.90
1686;DHT22;840;47.980;7.830;2023-07-09T03:34:59;22.80;99.90
1686;DHT22;840;47.980;7.830;2023-07-09T03:37:26;22.80;99.90
1686;DHT22;840;47.980;7.830;2023-07-09T03:39:54;22.90;99.90
1686;DHT22;840;47.980;7.830;2023-07-09T03:42:20;22.90;99.90
1686;DHT22;840;47.980;7.830;2023-07-09T03:44:47;22.90;99.90
1686;DHT22;840;47.980;7.830;2023-07-09T03:47:14;22.90;99.90
1686;DHT22;840;47.980;7.830;2023-07-09T03:49:41;22.90;99.90
1686;DHT22;840;47.980;7.830;2023-07-09T03:52:08;22.90;99.90
1686;DHT22;840;47.980;7.830;2023-07-09T03:54:34;22.80;99.90
1686;DHT22;840;47.980;7.830;2023-07-09T03:57:03;22.80;99.90
1686;DHT22;840;47.980;7.830;2023-07-09T03:59:31;22.80;99.90
1686;DHT22;840;47.980;7.830;2023-07-09T04:01:58;22.70;99.90
1686;DHT22;840;47.980;7.830;2023-07-09T04:04:27;22.70;99.90
1686;DHT22;840;47.980;7.830;2023-07-09T04:06:53;22.70;99.90
1686;DHT22;840;47.980;7.830;2023-07-09T04:09:20;22.70;99.90
1686;DHT22;840;47.980;7.830;2023-07-09T04:11:46;22.70;99.90
1686;DHT22;840;47.980;7.830;2023-07-09T04:14:14;22.60;99.90
1686;DHT22;840;47.980;7.830;2023-07-09T04:16:41;22.60;99.90
1686;DHT22;840;47.980;7.830;2023-07-09T04:19:08;22.60;99.90
1686;DHT22;840;47.980;7.830;2023-07-09T04:21:35;22.60;99.90
1686;DHT22;840;47.980;7.830;2023-07-09T04:24:02;22.60;99.90
1686;DHT22;840;47.980;7.830;2023-07-09T04:26:29;22.60;99.90
1686;DHT22;840;47.980;7.830;2023-07-09T04:28:56;22.60;99.90
1686;DHT22;840;47.980;7.830;2023-07-09T04:31:24;22.60;99.90
1686;DHT22;840;47.980;7.830;2023-07-09T04:33:51;22.60;99.90
1686;DHT22;840;47.980;7.830;2023-07-09T04:36:18;22.60;99.90
1686;DHT22;840;47.980;7.830;2023-07-09T04:38:45;22.60;99.90
1686;DHT22;840;47.980;7.830;2023-07-09T04:41:12;22.50;99.90
1686;DHT22;840;47.980;7.830;2023-07-09T04:43:39;22.50;99.90
1686;DHT22;840;47.980;7.830;2023-07-09T04:46:05;22.50;99.90
1686;DHT22;840;47.980;7.830;2023-07-09T04:48:33;22.40;99.90
1686;DHT22;840;47.980;7.830;2023-07-09T04:51:00;22.50;99.90
1686;DHT22;840;47.980;7.830;2023-07-09T04:53:27;22.50;99.90
1686;DHT22;840;47.980;7.830;2023-07-09T04:55:54;22.50;99.90
1686;DHT22;840;47.980;7.830;2023-07-09T04:58:21;22.60;99.90
1686;DHT22;840;47.980;7.830;2023-07-09T05:00:48;22.60;99.90
1686;DHT22;840;47.980;7.830;2023-07-09T05:03:16;22.60;99.90
1686;DHT22;840;47.980;7.830;2023-07-09T05:05:45;22.60;99.90
1686;DHT22;840;47.980;7.830;2023-07-09T05:08:12;22.70;99.90
1686;DHT22;840;47.980;7.830;2023-07-09T05:10:42;22.70;99.90
1686;DHT22;840;47.980;7.830;2023-07-09T05:13:09;22.80;99.90
1686;DHT22;840;47.980;7.830;2023-07-09T05:15:40;22.80;99.90
1686;DHT22;840;47.980;7.830;2023-07-09T05:18:07;22.80;99.90
1686;DHT22;840;47.980;7.830;2023-07-09T05:20:34;22.80;99.90
1686;DHT22;840;47.980;7.830;2023-07-09T05:23:02;22.80;99.90
1686;DHT22;840;47.980;7.830;2023-07-09T05:25:29;22.90;99.90
1686;DHT22;840;47.980;7.830;2023-07-09T05:27:56;22.90;99.90
1686;DHT22;840;47.980;7.830;2023-07-09T05:30:23;23.00;99.90
1686;DHT22;840;47.980;7.830;2023-07-09T05:32:49;23.00;99.90
1686;DHT22;840;47.980;7.830;2023-07-09T05:35:19;23.00;99.90
1686;DHT22;840;47.980;7.830;2023-07-09T05:37:46;23.00;99.90
1686;DHT22;840;47.980;7.830;2023-07-09T05:40:14;23.10;99.90
1686;DHT22;840;47.980;7.830;2023-07-09T05:42:40;23.10;99.90
1686;DHT22;840;47.980;7.830;2023-07-09T05:45:08;23.20;99.90
1686;DHT22;840;47.980;7.830;2023-07-09T05:47:35;23.20;99.90
1686;DHT22;840;47.980;7.830;2023-07-09T05:50:02;23.30;99.90
1686;DHT22;840;47.980;7.830;2023-07-09T05:52:29;23.40;99.90
1686;DHT22;840;47.980;7.830;2023-07-09T05:54:56;23.40;99.90
1686;DHT22;840;47.980;7.830;2023-07-09T05:57:24;23.50;99.90
1686;DHT22;840;47.980;7.830;2023-07-09T05:59:51;23.50;99.90
1686;DHT22;840;47.980;7.830;2023-07-09T06:02:20;23.60;99.90
1686;DHT22;840;47.980;7.830;2023-07-09T06:04:48;23.70;99.90
1686;DHT22;840;47.980;7.830;2023-07-09T06:07:15;23.70;99.90
1686;DHT22;840;47.980;7.830;2023-07-09T06:09:44;23.80;99.90
1686;DHT22;840;47.980;7.830;2023-07-09T06:12:11;23.80;99.90
1686;DHT22;840;47.980;7.830;2023-07-09T06:14:39;23.90;99.90
1686;DHT22;840;47.980;7.830;2023-07-09T06:17:06;24.00;99.90
1686;DHT22;840;47.980;7.830;2023-07-09T06:19:32;24.10;99.90
1686;DHT22;840;47.980;7.830;2023-07-09T06:21:59;24.10;99.90
1686;DHT22;840;47.980;7.830;2023-07-09T06:24:26;24.20;99.90
1686;DHT22;840;47.980;7.830;2023-07-09T06:26:53;24.30;99.90
1686;DHT22;840;47.980;7.830;2023-07-09T06:29:19;24.40;99.90
1686;DHT22;840;47.980;7.830;2023-07-09T06:31:47;24.40;99.90
1686;DHT22;840;47.980;7.830;2023-07-09T06:34:14;24.50;99.90
1686;DHT22;840;47.980;7.830;2023-07-09T06:36:41;24.50;99.90
1686;DHT22;840;47.980;7.830;2023-07-09T06:39:08;24.60;99.90
1686;DHT22;840;47.980;7.830;2023-07-09T06:41:35;24.60;99.90
1686;DHT22;840;47.980;7.830;2023-07-09T06:44:04;24.70;99.90
1686;DHT22;840;47.980;7.830;2023-07-09T06:46:31;24.80;99.90
1686;DHT22;840;47.980;7.830;2023-07-09T06:49:00;24.80;99.90
1686;DHT22;840;47.980;7.830;2023-07-09T06:51:27;24.90;99.90
1686;DHT22;840;47.980;7.830;2023-07-09T06:53:54;24.90;99.90
1686;DHT22;840;47.980;7.830;2023-07-09T06:56:21;25.00;99.90
1686;DHT22;840;47.980;7.830;2023-07-09T06:58:48;25.10;99.90
1686;DHT22;840;47.980;7.830;2023-07-09T07:01:15;25.10;99.90
1686;DHT22;840;47.980;7.830;2023-07-09T07:03:42;25.20;99.90
1686;DHT22;840;47.980;7.830;2023-07-09T07:06:10;25.30;99.90
1686;DHT22;840;47.980;7.830;2023-07-09T07:08:37;25.30;99.90
1686;DHT22;840;47.980;7.830;2023-07-09T07:11:04;25.40;99.90
1686;DHT22;840;47.980;7.830;2023-07-09T07:13:34;25.40;99.90
1686;DHT22;840;47.980;7.830;2023-07-09T07:16:02;25.50;99.90
1686;DHT22;840;47.980;7.830;2023-07-09T07:18:29;25.60;99.90
1686;DHT22;840;47.980;7.830;2023-07-09T07:20:55;25.60;99.90
1686;DHT22;840;47.980;7.830;2023-07-09T07:23:24;25.70;99.90
1686;DHT22;840;47.980;7.830;2023-07-09T07:25:50;25.80;99.90
1686;DHT22;840;47.980;7.830;2023-07-09T07:28:18;25.90;99.90
1686;DHT22;840;47.980;7.830;2023-07-09T07:30:45;26.00;99.90
1686;DHT22;840;47.980;7.830;2023-07-09T07:33:13;26.00;99.90
1686;DHT22;840;47.980;7.830;2023-07-09T07:35:41;26.10;99.90
1686;DHT22;840;47.980;7.830;2023-07-09T07:38:08;26.20;99.90
1686;DHT22;840;47.980;7.830;2023-07-09T07:40:36;26.20;99.90
1686;DHT22;840;47.980;7.830;2023-07-09T07:43:03;26.30;99.90
1686;DHT22;840;47.980;7.830;2023-07-09T07:45:29;26.30;99.90
1686;DHT22;840;47.980;7.830;2023-07-09T07:47:58;26.30;99.90
1686;DHT22;840;47.980;7.830;2023-07-09T07:50:25;26.40;99.90
1686;DHT22;840;47.980;7.830;2023-07-09T07:52:52;26.40;99.90
1686;DHT22;840;47.980;7.830;2023-07-09T07:55:18;26.50;99.90
1686;DHT22;840;47.980;7.830;2023-07-09T07:57:46;26.50;99.90
1686;DHT22;840;47.980;7.830;2023-07-09T08:00:14;26.60;99.90
1686;DHT22;840;47.980;7.830;2023-07-09T08:02:42;26.60;99.90
1686;DHT22;840;47.980;7.830;2023-07-09T08:05:08;26.70;99.90
1686;DHT22;840;47.980;7.830;2023-07-09T08:07:35;26.80;99.90
1686;DHT22;840;47.980;7.830;2023-07-09T08:10:03;26.90;99.90
1686;DHT22;840;47.980;7.830;2023-07-09T08:12:29;27.00;99.90
1686;DHT22;840;47.980;7.830;2023-07-09T08:14:57;27.00;99.90
1686;DHT22;840;47.980;7.830;2023-07-09T08:17:24;27.10;99.90
1686;DHT22;840;47.980;7.830;2023-07-09T08:19:53;27.10;99.90
1686;DHT22;840;47.980;7.830;2023-07-09T08:22:21;27.20;99.90
1686;DHT22;840;47.980;7.830;2023-07-09T08:24:48;27.30;99.90
1686;DHT22;840;47.980;7.830;2023-07-09T08:27:15;27.30;99.90
1686;DHT22;840;47.980;7.830;2023-07-09T08:29:42;27.30;99.90
1686;DHT22;840;47.980;7.830;2023-07-09T08:32:11;27.30;99.90
1686;DHT22;840;47.980;7.830;2023-07-09T08:34:39;27.30;99.90
1686;DHT22;840;47.980;7.830;2023-07-09T08:37:14;27.20;99.90
1686;DHT22;840;47.980;7.830;2023-07-09T08:39:42;27.30;99.90
1686;DHT22;840;47.980;7.830;2023-07-09T08:42:11;27.30;99.90
1686;DHT22;840;47.980;7.830;2023-07-09T08:44:58;27.40;99.90
1686;DHT22;840;47.980;7.830;2023-07-09T08:47:32;27.40;99.90
1686;DHT22;840;47.980;7.830;2023-07-09T08:50:02;27.40;99.90
1686;DHT22;840;47.980;7.830;2023-07-09T08:52:33;27.50;99.90
1686;DHT22;840;47.980;7.830;2023-07-09T08:55:08;27.60;99.90
1686;DHT22;840;47.980;7.830;2023-07-09T08:57:38;27.70;99.90
1686;DHT22;840;47.980;7.830;2023-07-09T09:00:13;27.70;99.90
1686;DHT22;840;47.980;7.830;2023-07-09T09:02:46;27.80;99.90
1686;DHT22;840;47.980;7.830;2023-07-09T09:05:18;27.90;99.90
1686;DHT22;840;47.980;7.830;2023-07-09T09:07:50;27.90;99.90
1686;DHT22;840;47.980;7.830;2023-07-09T09:10:23;28.00;99.90
1686;DHT22;840;47.980;7.830;2023-07-09T09:13:04;28.00;99.90
1686;DHT22;840;47.980;7.830;2023-07-09T09:15:32;28.00;99.90
1686;DHT22;840;47.980;7.830;2023-07-09T09:18:20;28.10;99.90
1686;DHT22;840;47.980;7.830;2023-07-09T09:20:51;28.20;99.90
1686;DHT22;840;47.980;7.830;2023-07-09T09:23:20;28.30;99.90
1686;DHT22;840;47.980;7.830;2023-07-09T09:25:52;28.40;99.90
1686;DHT22;840;47.980;7.830;2023-07-09T09:28:21;28.50;99.90
1686;DHT22;840;47.980;7.830;2023-07-09T09:30:50;28.50;99.90
1686;DHT22;840;47.980;7.830;2023-07-09T09:33:19;28.60;99.90
1686;DHT22;840;47.980;7.830;2023-07-09T09:35:46;28.70;99.90
1686;DHT22;840;47.980;7.830;2023-07-09T09:38:17;28.90;99.90
1686;DHT22;840;47.980;7.830;2023-07-09T09:40:44;29.10;99.90
1686;DHT22;840;47.980;7.830;2023-07-09T09:43:13;29.20;99.90
1686;DHT22;840;47.980;7.830;2023-07-09T09:45:42;29.30;99.90
1686;DHT22;840;47.980;7.830;2023-07-09T09:48:14;29.40;99.90
1686;DHT22;840;47.980;7.830;2023-07-09T09:50:44;29.50;99.90
1686;DHT22;840;47.980;7.830;2023-07-09T09:53:17;29.60;99.90
1686;DHT22;840;47.980;7.830;2023-07-09T09:55:45;29.70;99.70
1686;DHT22;840;47.980;7.830;2023-07-09T09:58:14;29.80;99.30
1686;DHT22;840;47.980;7.830;2023-07-09T10:00:48;29.90;98.10
1686;DHT22;840;47.980;7.830;2023-07-09T10:03:14;30.00;97.70
1686;DHT22;840;47.980;7.830;2023-07-09T10:05:45;30.10;98.30
1686;DHT22;840;47.980;7.830;2023-07-09T10:08:22;30.20;98.00
1686;DHT22;840;47.980;7.830;2023-07-09T10:10:58;30.30;97.50
1686;DHT22;840;47.980;7.830;2023-07-09T10:13:33;30.40;96.10
1686;DHT22;840;47.980;7.830;2023-07-09T10:16:05;30.40;96.60
1686;DHT22;840;47.980;7.830;2023-07-09T10:18:42;30.50;95.60
1686;DHT22;840;47.980;7.830;2023-07-09T10:21:15;30.60;94.90
1686;DHT22;840;47.980;7.830;2023-07-09T10:23:49;30.60;94.30
1686;DHT22;840;47.980;7.830;2023-07-09T10:26:25;30.70;94.70
1686;DHT22;840;47.980;7.830;2023-07-09T10:31:54;30.90;94.20
1686;DHT22;840;47.980;7.830;2023-07-09T10:34:29;30.90;93.40
1686;DHT22;840;47.980;7.830;2023-07-09T10:37:12;31.00;93.40
1686;DHT22;840;47.980;7.830;2023-07-09T10:39:47;31.10;95.10
1686;DHT22;840;47.980;7.830;2023-07-09T10:42:19;31.10;93.90
1686;DHT22;840;47.980;7.830;2023-07-09T10:44:54;31.10;94.20
1686;DHT22;840;47.980;7.830;2023-07-09T10:47:27;31.20;93.00
1686;DHT22;840;47.980;7.830;2023-07-09T10:49:55;31.20;93.60
1686;DHT22;840;47.980;7.830;2023-07-09T10:52:28;31.30;93.50
1686;DHT22;840;47.980;7.830;2023-07-09T10:55:00;31.30;93.10
1686;DHT22;840;47.980;7.830;2023-07-09T10:57:31;31.30;94.00
1686;DHT22;840;47.980;7.830;2023-07-09T10:59:59;31.30;93.20
1686;DHT22;840;47.980;7.830;2023-07-09T11:02:31;31.30;93.90
1686;DHT22;840;47.980;7.830;2023-07-09T11:05:00;31.40;95.40
1686;DHT22;840;47.980;7.830;2023-07-09T11:07:32;31.50;95.20
1686;DHT22;840;47.980;7.830;2023-07-09T11:10:02;31.60;95.00
1686;DHT22;840;47.980;7.830;2023-07-09T11:12:32;31.60;94.60
1686;DHT22;840;47.980;7.830;2023-07-09T11:15:03;31.70;95.80
1686;DHT22;840;47.980;7.830;2023-07-09T11:17:31;31.80;95.60
1686;DHT22;840;47.980;7.830;2023-07-09T11:20:05;31.90;93.90
1686;DHT22;840;47.980;7.830;2023-07-09T11:22:38;31.90;94.40
1686;DHT22;840;47.980;7.830;2023-07-09T11:25:08;31.90;94.50
1686;DHT22;840;47.980;7.830;2023-07-09T11:27:46;31.90;94.60
1686;DHT22;840;47.980;7.830;2023-07-09T11:30:23;32.00;95.30
1686;DHT22;840;47.980;7.830;2023-07-09T11:32:56;32.00;93.70
1686;DHT22;840;47.980;7.830;2023-07-09T11:35:26;32.10;93.70
1686;DHT22;840;47.980;7.830;2023-07-09T11:37:55;32.20;94.20
1686;DHT22;840;47.980;7.830;2023-07-09T11:40:24;32.30;94.60
1686;DHT22;840;47.980;7.830;2023-07-09T11:42:53;32.40;93.30
1686;DHT22;840;47.980;7.830;2023-07-09T11:45:24;32.40;93.00
1686;DHT22;840;47.980;7.830;2023-07-09T11:47:57;32.50;93.70
1686;DHT22;840;47.980;7.830;2023-07-09T11:50:31;32.50;93.80
1686;DHT22;840;47.980;7.830;2023-07-09T11:53:03;32.60;93.40
1686;DHT22;840;47.980;7.830;2023-07-09T11:55:39;32.70;92.30
1686;DHT22;840;47.980;7.830;2023-07-09T11:58:10;32.70;92.80
1686;DHT22;840;47.980;7.830;2023-07-09T12:00:39;32.70;93.00
1686;DHT22;840;47.980;7.830;2023-07-09T12:03:09;32.80;93.60
1686;DHT22;840;47.980;7.830;2023-07-09T12:05:37;32.90;93.80
1686;DHT22;840;47.980;7.830;2023-07-09T12:08:06;33.00;92.80
1686;DHT22;840;47.980;7.830;2023-07-09T12:10:36;33.10;92.80
1686;DHT22;840;47.980;7.830;2023-07-09T12:13:03;33.20;92.00
1686;DHT22;840;47.980;7.830;2023-07-09T12:15:30;33.30;92.10
1686;DHT22;840;47.980;7.830;2023-07-09T12:17:59;33.40;92.30
1686;DHT22;840;47.980;7.830;2023-07-09T12:20:28;33.40;91.50
1686;DHT22;840;47.980;7.830;2023-07-09T12:22:55;33.60;91.20
1686;DHT22;840;47.980;7.830;2023-07-09T12:25:25;33.60;90.80
1686;DHT22;840;47.980;7.830;2023-07-09T12:27:53;33.60;91.00
1686;DHT22;840;47.980;7.830;2023-07-09T12:30:20;33.60;90.70
1686;DHT22;840;47.980;7.830;2023-07-09T12:32:49;33.70;90.30
1686;DHT22;840;47.980;7.830;2023-07-09T12:35:18;33.80;90.60
1686;DHT22;840;47.980;7.830;2023-07-09T12:37:47;34.00;90.30
1686;DHT22;840;47.980;7.830;2023-07-09T12:40:27;34.10;90.00
1686;DHT22;840;47.980;7.830;2023-07-09T12:42:56;34.20;89.50
1686;DHT22;840;47.980;7.830;2023-07-09T12:45:23;34.30;88.80
1686;DHT22;840;47.980;7.830;2023-07-09T12:47:50;34.40;89.30
1686;DHT22;840;47.980;7.830;2023-07-09T12:50:23;34.50;90.00
1686;DHT22;840;47.980;7.830;2023-07-09T12:52:55;34.80;86.70
1686;DHT22;840;47.980;7.830;2023-07-09T12:55:24;34.90;85.90
1686;DHT22;840;47.980;7.830;2023-07-09T12:57:51;35.20;87.30
1686;DHT22;840;47.980;7.830;2023-07-09T13:00:20;35.30;85.00
1686;DHT22;840;47.980;7.830;2023-07-09T13:02:52;35.50;84.20
1686;DHT22;840;47.980;7.830;2023-07-09T13:05:22;35.60;82.60
1686;DHT22;840;47.980;7.830;2023-07-09T13:07:52;35.80;80.70
1686;DHT22;840;47.980;7.830;2023-07-09T13:10:21;36.00;83.10
1686;DHT22;840;47.980;7.830;2023-07-09T13:12:50;36.30;81.40
1686;DHT22;840;47.980;7.830;2023-07-09T13:15:27;36.60;79.60
1686;DHT22;840;47.980;7.830;2023-07-09T13:17:59;36.40;78.00
1686;DHT22;840;47.980;7.830;2023-07-09T13:20:27;36.30;78.30
1686;DHT22;840;47.980;7.830;2023-07-09T13:22:54;36.30;78.10
1686;DHT22;840;47.980;7.830;2023-07-09T13:25:21;36.50;78.70
1686;DHT22;840;47.980;7.830;2023-07-09T13:27:48;36.60;76.60
1686;DHT22;840;47.980;7.830;2023-07-09T13:30:14;36.90;75.80
1686;DHT22;840;47.980;7.830;2023-07-09T13:32:48;37.20;76.80
1686;DHT22;840;47.980;7.830;2023-07-09T13:35:17;37.50;73.50
1686;DHT22;840;47.980;7.830;2023-07-09T13:37:45;37.90;73.40
1686;DHT22;840;47.980;7.830;2023-07-09T13:40:12;38.20;69.80
1686;DHT22;840;47.980;7.830;2023-07-09T13:42:40;38.50;71.30
1686;DHT22;840;47.980;7.830;2023-07-09T13:45:16;38.80;69.90
1686;DHT22;840;47.980;7.830;2023-07-09T13:47:45;39.00;69.10
1686;DHT22;840;47.980;7.830;2023-07-09T13:50:12;39.20;68.10
1686;DHT22;840;47.980;7.830;2023-07-09T13:52:39;39.50;65.90
1686;DHT22;840;47.980;7.830;2023-07-09T13:55:15;39.60;61.60
1686;DHT22;840;47.980;7.830;2023-07-09T13:57:42;39.70;63.60
1686;DHT22;840;47.980;7.830;2023-07-09T14:00:11;40.00;61.40
1686;DHT22;840;47.980;7.830;2023-07-09T14:02:38;40.10;58.40
1686;DHT22;840;47.980;7.830;2023-07-09T14:05:12;40.20;57.80
1686;DHT22;840;47.980;7.830;2023-07-09T14:07:41;40.30;57.90
1686;DHT22;840;47.980;7.830;2023-07-09T14:10:12;40.30;58.30
1686;DHT22;840;47.980;7.830;2023-07-09T14:12:44;40.50;56.00
1686;DHT22;840;47.980;7.830;2023-07-09T14:15:14;40.40;55.60
1686;DHT22;840;47.980;7.830;2023-07-09T14:17:41;40.50;56.30
1686;DHT22;840;47.980;7.830;2023-07-09T14:20:12;40.60;55.20
1686;DHT22;840;47.980;7.830;2023-07-09T14:22:41;40.70;53.90
1686;DHT22;840;47.980;7.830;2023-07-09T14:25:15;40.90;54.90
1686;DHT22;840;47.980;7.830;2023-07-09T14:27:42;41.10;53.40
1686;DHT22;840;47.980;7.830;2023-07-09T14:30:14;41.30;52.80
1686;DHT22;840;47.980;7.830;2023-07-09T14:32:42;41.30;51.70
1686;DHT22;840;47.980;7.830;2023-07-09T14:35:14;40.70;52.20
1686;DHT22;840;47.980;7.830;2023-07-09T14:37:42;40.60;53.50
1686;DHT22;840;47.980;7.830;2023-07-09T14:40:09;40.60;51.70
1686;DHT22;840;47.980;7.830;2023-07-09T14:42:37;40.30;51.30
1686;DHT22;840;47.980;7.830;2023-07-09T14:45:09;40.30;52.90
1686;DHT22;840;47.980;7.830;2023-07-09T14:47:41;40.40;52.90
1686;DHT22;840;47.980;7.830;2023-07-09T14:50:08;40.50;52.90
1686;DHT22;840;47.980;7.830;2023-07-09T14:52:37;40.70;53.80
1686;DHT22;840;47.980;7.830;2023-07-09T14:55:05;40.90;49.50
1686;DHT22;840;47.980;7.830;2023-07-09T14:57:32;40.90;48.70
1686;DHT22;840;47.980;7.830;2023-07-09T14:59:59;40.90;49.40
1686;DHT22;840;47.980;7.830;2023-07-09T15:02:33;41.00;49.00
1686;DHT22;840;47.980;7.830;2023-07-09T15:05:01;41.20;48.50
1686;DHT22;840;47.980;7.830;2023-07-09T15:07:28;41.30;48.00
1686;DHT22;840;47.980;7.830;2023-07-09T15:09:57;41.40;43.10
1686;DHT22;840;47.980;7.830;2023-07-09T15:12:27;41.50;41.80
1686;DHT22;840;47.980;7.830;2023-07-09T15:15:00;41.60;45.00
1686;DHT22;840;47.980;7.830;2023-07-09T15:17:28;41.60;45.50
1686;DHT22;840;47.980;7.830;2023-07-09T15:19:55;41.70;44.70
1686;DHT22;840;47.980;7.830;2023-07-09T15:22:27;41.80;44.90
1686;DHT22;840;47.980;7.830;2023-07-09T15:24:56;41.90;43.50
1686;DHT22;840;47.980;7.830;2023-07-09T15:27:23;42.10;43.00
1686;DHT22;840;47.980;7.830;2023-07-09T15:29:50;42.20;41.60
1686;DHT22;840;47.980;7.830;2023-07-09T15:32:17;42.10;41.90
1686;DHT22;840;47.980;7.830;2023-07-09T15:34:44;42.20;42.00
1686;DHT22;840;47.980;7.830;2023-07-09T15:37:12;42.00;42.20
1686;DHT22;840;47.980;7.830;2023-07-09T15:39:40;41.80;40.70
1686;DHT22;840;47.980;7.830;2023-07-09T15:42:11;41.40;40.80
1686;DHT22;840;47.980;7.830;2023-07-09T15:44:39;41.00;40.40
1686;DHT22;840;47.980;7.830;2023-07-09T15:47:15;40.70;41.00
1686;DHT22;840;47.980;7.830;2023-07-09T15:49:42;40.50;41.10
1686;DHT22;840;47.980;7.830;2023-07-09T15:52:09;40.30;40.90
1686;DHT22;840;47.980;7.830;2023-07-09T15:54:36;40.20;42.00
1686;DHT22;840;47.980;7.830;2023-07-09T15:57:04;40.10;42.00
1686;DHT22;840;47.980;7.830;2023-07-09T15:59:34;39.90;42.20
1686;DHT22;840;47.980;7.830;2023-07-09T16:02:10;39.70;41.70
1686;DHT22;840;47.980;7.830;2023-07-09T16:04:37;39.60;41.80
1686;DHT22;840;47.980;7.830;2023-07-09T16:07:05;39.40;41.10
1686;DHT22;840;47.980;7.830;2023-07-09T16:09:32;39.40;41.10
1686;DHT22;840;47.980;7.830;2023-07-09T16:11:58;39.50;41.20
1686;DHT22;840;47.980;7.830;2023-07-09T16:14:27;39.70;41.20
1686;DHT22;840;47.980;7.830;2023-07-09T16:16:57;39.80;40.60
1686;DHT22;840;47.980;7.830;2023-07-09T16:19:26;39.90;38.90
1686;DHT22;840;47.980;7.830;2023-07-09T16:21:54;40.00;38.10
1686;DHT22;840;47.980;7.830;2023-07-09T16:24:25;40.20;38.20
1686;DHT22;840;47.980;7.830;2023-07-09T16:26:52;40.40;38.50
1686;DHT22;840;47.980;7.830;2023-07-09T16:29:23;40.50;37.20
1686;DHT22;840;47.980;7.830;2023-07-09T16:31:52;40.40;37.10
1686;DHT22;840;47.980;7.830;2023-07-09T16:34:20;40.30;36.20
1686;DHT22;840;47.980;7.830;2023-07-09T16:36:47;40.20;37.50
1686;DHT22;840;47.980;7.830;2023-07-09T16:39:24;40.20;37.60
1686;DHT22;840;47.980;7.830;2023-07-09T16:42:10;40.00;37.70
1686;DHT22;840;47.980;7.830;2023-07-09T16:44:37;40.00;36.30
1686;DHT22;840;47.980;7.830;2023-07-09T16:47:10;39.90;35.80
1686;DHT22;840;47.980;7.830;2023-07-09T16:49:42;39.90;35.50
1686;DHT22;840;47.980;7.830;2023-07-09T16:52:14;40.00;36.50
1686;DHT22;840;47.980;7.830;2023-07-09T16:54:41;40.20;36.40
1686;DHT22;840;47.980;7.830;2023-07-09T16:57:12;40.30;36.80
1686;DHT22;840;47.980;7.830;2023-07-09T16:59:40;40.30;34.50
1686;DHT22;840;47.980;7.830;2023-07-09T17:02:23;40.30;36.20
1686;DHT22;840;47.980;7.830;2023-07-09T17:04:52;40.20;33.40
1686;DHT22;840;47.980;7.830;2023-07-09T17:07:19;39.90;35.70
1686;DHT22;840;47.980;7.830;2023-07-09T17:09:47;39.80;36.30
1686;DHT22;840;47.980;7.830;2023-07-09T17:12:14;39.60;37.80
1686;DHT22;840;47.980;7.830;2023-07-09T17:14:42;39.40;36.00
1686;DHT22;840;47.980;7.830;2023-07-09T17:17:12;39.10;35.10
1686;DHT22;840;47.980;7.830;2023-07-09T17:19:39;38.90;36.20
1686;DHT22;840;47.980;7.830;2023-07-09T17:22:16;38.60;35.90
1686;DHT22;840;47.980;7.830;2023-07-09T17:24:43;38.30;36.50
1686;DHT22;840;47.980;7.830;2023-07-09T17:27:10;38.00;36.50
1686;DHT22;840;47.980;7.830;2023-07-09T17:29:38;37.80;38.40
1686;DHT22;840;47.980;7.830;2023-07-09T17:32:06;37.70;40.10
1686;DHT22;840;47.980;7.830;2023-07-09T17:34:34;37.60;41.70
1686;DHT22;840;47.980;7.830;2023-07-09T17:37:02;37.60;42.80
1686;DHT22;840;47.980;7.830;2023-07-09T17:39:31;37.50;43.50
1686;DHT22;840;47.980;7.830;2023-07-09T17:41:58;37.50;44.00
1686;DHT22;840;47.980;7.830;2023-07-09T17:44:25;37.40;44.70
1686;DHT22;840;47.980;7.830;2023-07-09T17:46:52;37.30;45.60
1686;DHT22;840;47.980;7.830;2023-07-09T17:49:22;37.20;46.30
1686;DHT22;840;47.980;7.830;2023-07-09T17:51:50;37.00;46.20
1686;DHT22;840;47.980;7.830;2023-07-09T17:54:19;36.90;47.20
1686;DHT22;840;47.980;7.830;2023-07-09T17:56:48;36.80;48.10
1686;DHT22;840;47.980;7.830;2023-07-09T17:59:17;36.70;48.40
1686;DHT22;840;47.980;7.830;2023-07-09T18:01:48;36.50;48.80
1686;DHT22;840;47.980;7.830;2023-07-09T18:04:17;36.40;49.30
1686;DHT22;840;47.980;7.830;2023-07-09T18:06:47;36.20;49.80
1686;DHT22;840;47.980;7.830;2023-07-09T18:09:15;36.10;50.30
1686;DHT22;840;47.980;7.830;2023-07-09T18:11:43;35.90;47.20
1686;DHT22;840;47.980;7.830;2023-07-09T18:14:22;35.70;48.80
1686;DHT22;840;47.980;7.830;2023-07-09T18:16:50;35.70;49.50
1686;DHT22;840;47.980;7.830;2023-07-09T18:19:24;35.60;50.80
1686;DHT22;840;47.980;7.830;2023-07-09T18:21:51;35.60;50.90
1686;DHT22;840;47.980;7.830;2023-07-09T18:24:19;35.50;51.40
1686;DHT22;840;47.980;7.830;2023-07-09T18:26:46;35.40;52.00
1686;DHT22;840;47.980;7.830;2023-07-09T18:29:27;35.30;52.50
1686;DHT22;840;47.980;7.830;2023-07-09T18:31:56;35.20;53.40